createdAt,value
2019-01-06T00:07:43.285Z,102363.08
2019-01-06T00:10:28.946Z,102365.28
2019-01-06T00:16:01.935Z,102355.40
2019-01-06T00:21:34.906Z,102355.87
2019-01-06T00:24:20.563Z,102364.58
2019-01-06T00:27:06.223Z,102346.08
2019-01-06T00:29:51.870Z,102350.75
2019-01-06T00:43:09.913Z,102358.13
2019-01-06T00:48:42.893Z,102354.22
2019-01-06T00:54:22.507Z,102369.11
2019-01-06T00:57:08.160Z,102383.51
2019-01-06T00:59:53.838Z,102375.30
2019-01-06T01:02:39.514Z,102378.34
2019-01-06T01:05:25.169Z,102385.39
2019-01-06T01:08:11.169Z,102385.69
2019-01-06T01:10:56.940Z,102386.98
2019-01-06T01:18:49.850Z,102383.75
2019-01-06T01:21:55.533Z,102395.34
2019-01-06T01:24:41.194Z,102397.67
2019-01-06T01:27:26.844Z,102396.09
2019-01-06T01:32:46.509Z,102399.97
2019-01-06T01:35:32.162Z,102402.89
2019-01-06T01:38:17.835Z,102404.59
2019-01-06T01:41:03.478Z,102407.52
2019-01-06T01:43:49.138Z,102405.02
2019-01-06T01:49:22.087Z,102415.81
2019-01-06T01:52:07.738Z,102418.83
2019-01-06T01:54:53.406Z,102418.62
2019-01-06T02:00:48.174Z,102419.16
2019-01-06T02:03:33.805Z,102415.36
2019-01-06T02:06:19.462Z,102419.90
2019-01-06T02:16:59.936Z,102421.93
2019-01-06T02:22:23.826Z,102420.84
2019-01-06T02:25:09.487Z,102415.16
2019-01-06T02:27:55.130Z,102419.91
2019-01-06T02:30:40.792Z,102415.48
2019-01-06T02:33:26.436Z,102413.92
2019-01-06T02:36:12.095Z,102420.20
2019-01-06T02:38:57.753Z,102425.94
2019-01-06T02:41:43.416Z,102417.27
2019-01-06T02:44:29.067Z,102422.82
2019-01-06T02:49:53.004Z,102421.74
2019-01-06T02:52:38.675Z,102415.53
2019-01-06T02:55:24.330Z,102425.95
2019-01-06T02:58:09.999Z,102429.25
2019-01-06T03:00:55.660Z,102423.50
2019-01-06T03:03:41.318Z,102428.25
2019-01-06T03:06:26.992Z,102427.50
2019-01-06T03:09:12.651Z,102432.34
2019-01-06T03:11:58.319Z,102430.45
2019-01-06T03:17:31.307Z,102428.62
2019-01-06T03:20:16.964Z,102435.05
2019-01-06T03:23:02.650Z,102431.41
2019-01-06T03:28:35.603Z,102430.16
2019-01-06T03:34:08.569Z,102423.69
2019-01-06T03:36:54.216Z,102419.73
2019-01-06T03:39:39.879Z,102413.11
2019-01-06T03:42:25.536Z,102418.36
2019-01-06T03:45:11.201Z,102416.77
2019-01-06T03:47:56.850Z,102411.47
2019-01-06T03:50:42.522Z,102425.28
2019-01-06T03:53:28.167Z,102415.94
2019-01-06T03:56:13.830Z,102411.09
2019-01-06T04:04:20.486Z,102419.50
2019-01-06T04:07:06.143Z,102416.03
2019-01-06T04:09:51.804Z,102428.45
2019-01-06T04:12:37.466Z,102419.52
2019-01-06T04:15:23.231Z,102423.86
2019-01-06T04:20:56.206Z,102423.52
2019-01-06T04:27:08.927Z,102428.88
2019-01-06T04:29:54.577Z,102422.23
2019-01-06T04:32:40.243Z,102416.44
2019-01-06T04:35:25.891Z,102417.61
2019-01-06T04:38:11.581Z,102419.31
2019-01-06T04:40:57.278Z,102418.82
2019-01-06T04:43:42.926Z,102423.58
2019-01-06T04:46:28.597Z,102421.38
2019-01-06T04:49:14.240Z,102421.84
2019-01-06T04:51:59.904Z,102421.78
2019-01-06T04:54:45.546Z,102418.07
2019-01-06T04:57:31.214Z,102411.98
2019-01-06T05:00:16.864Z,102414.73
2019-01-06T05:05:40.781Z,102412.83
2019-01-06T05:08:26.441Z,102417.95
2019-01-06T05:11:12.105Z,102419.67
2019-01-06T05:13:57.774Z,102412.51
2019-01-06T05:16:43.424Z,102416.88
2019-01-06T05:19:29.083Z,102413.32
2019-01-06T05:22:14.750Z,102416.32
2019-01-06T05:25:00.416Z,102422.21
2019-01-06T05:27:46.101Z,102418.99
2019-01-06T05:33:19.114Z,102425.66
2019-01-06T05:36:04.779Z,102432.95
2019-01-06T05:38:50.438Z,102432.25
2019-01-06T05:41:36.089Z,102439.56
2019-01-06T05:46:55.420Z,102439.25
2019-01-06T05:49:41.079Z,102446.54
2019-01-06T05:55:14.055Z,102451.29
2019-01-06T05:57:59.733Z,102455.67
2019-01-06T06:00:45.429Z,102451.22
2019-01-06T06:03:31.077Z,102452.94
2019-01-06T06:06:16.834Z,102467.22
2019-01-06T06:09:02.505Z,102468.55
2019-01-06T06:11:48.178Z,102469.50
2019-01-06T06:14:33.879Z,102467.66
2019-01-06T06:17:19.533Z,102460.94
2019-01-06T06:20:05.208Z,102464.69
2019-01-06T06:22:50.861Z,102473.13
2019-01-06T06:25:36.522Z,102475.80
2019-01-06T06:28:22.178Z,102479.47
2019-01-06T06:31:07.857Z,102482.33
2019-01-06T06:33:53.503Z,102485.27
2019-01-06T06:36:39.162Z,102486.27
2019-01-06T06:39:46.602Z,102488.11
2019-01-06T06:42:32.255Z,102483.11
2019-01-06T06:45:17.923Z,102486.13
2019-01-06T06:48:03.567Z,102491.42
2019-01-06T06:53:23.063Z,102492.70
2019-01-06T06:58:47.860Z,102499.74
2019-01-06T07:04:32.802Z,102501.45
2019-01-06T07:07:18.481Z,102507.09
2019-01-06T07:10:04.134Z,102504.56
2019-01-06T07:18:17.416Z,102532.95
2019-01-06T07:21:03.161Z,102537.91
2019-01-06T07:26:22.644Z,102535.17
2019-01-06T07:29:08.305Z,102536.54
2019-01-06T07:31:53.971Z,102534.97
2019-01-06T07:34:39.643Z,102538.63
2019-01-06T07:37:25.309Z,102544.42
2019-01-06T07:42:58.271Z,102552.31
2019-01-06T07:46:03.817Z,102549.65
2019-01-06T07:48:49.468Z,102554.03
2019-01-06T07:54:22.453Z,102560.76
2019-01-06T07:57:08.102Z,102555.34
2019-01-06T07:59:53.784Z,102566.97
2019-01-06T08:05:26.738Z,102572.33
2019-01-06T08:08:12.402Z,102573.00
2019-01-06T08:10:58.059Z,102573.52
2019-01-06T08:13:43.729Z,102573.20
2019-01-06T08:16:29.397Z,102579.59
2019-01-06T08:21:48.746Z,102586.33
2019-01-06T08:24:34.406Z,102582.95
2019-01-06T08:27:20.054Z,102590.01
2019-01-06T08:30:05.715Z,102582.45
2019-01-06T08:41:10.753Z,102571.16
2019-01-06T08:46:43.719Z,102578.42
2019-01-06T08:49:29.386Z,102573.17
2019-01-06T08:55:02.415Z,102568.42
2019-01-06T08:57:48.114Z,102562.16
2019-01-06T09:00:33.773Z,102563.29
2019-01-06T09:03:19.425Z,102585.29
2019-01-06T09:06:05.079Z,102580.03
2019-01-06T09:08:50.752Z,102579.86
2019-01-06T09:11:36.418Z,102577.14
2019-01-06T09:14:22.090Z,102580.39
2019-01-06T09:17:07.775Z,102584.56
2019-01-06T09:25:14.267Z,102592.34
2019-01-06T09:27:59.945Z,102595.06
2019-01-06T09:30:45.636Z,102594.77
2019-01-06T09:38:52.383Z,102601.45
2019-01-06T09:44:16.269Z,102603.14
2019-01-06T09:47:01.942Z,102595.34
2019-01-06T09:55:08.772Z,102600.39
2019-01-06T09:57:54.431Z,102601.47
2019-01-06T10:00:40.117Z,102594.04
2019-01-06T10:03:25.772Z,102585.35
2019-01-06T10:08:58.738Z,102581.12
2019-01-06T10:11:44.389Z,102585.66
2019-01-06T10:14:30.069Z,102585.06
2019-01-06T10:17:15.815Z,102580.47
2019-01-06T10:20:01.452Z,102584.35
2019-01-06T10:22:47.114Z,102583.52
2019-01-06T10:25:32.806Z,102575.21
2019-01-06T10:30:52.313Z,102581.36
2019-01-06T10:36:16.162Z,102579.31
2019-01-06T10:39:01.848Z,102579.97
2019-01-06T10:44:54.703Z,102580.75
2019-01-06T10:47:40.358Z,102584.52
2019-01-06T10:53:39.838Z,102585.34
2019-01-06T10:56:25.481Z,102578.47
2019-01-06T11:01:44.752Z,102573.00
2019-01-06T11:04:30.414Z,102576.89
2019-01-06T11:10:03.389Z,102574.61
2019-01-06T11:12:49.045Z,102573.08
2019-01-06T11:15:34.704Z,102576.97
2019-01-06T11:18:20.348Z,102574.42
2019-01-06T11:26:13.459Z,102565.81
2019-01-06T11:28:59.222Z,102568.77
2019-01-06T11:31:44.880Z,102564.77
2019-01-06T11:34:30.533Z,102564.05
2019-01-06T11:37:16.199Z,102568.30
2019-01-06T11:42:49.214Z,102564.69
2019-01-06T11:45:34.855Z,102567.33
2019-01-06T11:48:20.531Z,102564.43
2019-01-06T11:51:06.304Z,102573.22
2019-01-06T11:56:39.266Z,102569.45
2019-01-06T11:59:24.933Z,102567.99
2019-01-06T12:04:44.381Z,102570.41
2019-01-06T12:07:30.046Z,102571.30
2019-01-06T12:13:03.041Z,102565.22
2019-01-06T12:15:48.685Z,102557.19
2019-01-06T12:18:34.367Z,102560.09
2019-01-06T12:21:20.064Z,102557.06
2019-01-06T12:26:53.275Z,102547.45
2019-01-06T12:32:26.236Z,102543.80
2019-01-06T12:35:11.899Z,102537.48
2019-01-06T12:37:57.802Z,102538.23
2019-01-06T12:40:43.547Z,102538.23
2019-01-06T12:46:02.723Z,102534.11
2019-01-06T12:51:22.207Z,102530.94
2019-01-06T12:54:07.937Z,102530.56
2019-01-06T12:56:53.593Z,102529.72
2019-01-06T13:02:17.653Z,102533.98
2019-01-06T13:05:03.339Z,102537.39
2019-01-06T13:07:49.025Z,102536.19
2019-01-06T13:10:34.742Z,102542.89
2019-01-06T13:13:20.560Z,102545.56
2019-01-06T13:18:53.517Z,102543.36
2019-01-06T13:21:39.300Z,102546.41
2019-01-06T13:24:24.958Z,102545.66
2019-01-06T13:27:10.613Z,102542.02
2019-01-06T13:29:56.290Z,102542.52
2019-01-06T13:32:41.940Z,102542.62
2019-01-06T13:35:27.599Z,102542.75
2019-01-06T13:41:03.106Z,102548.94
2019-01-06T13:46:42.735Z,102549.94
2019-01-06T13:49:28.458Z,102554.80
2019-01-06T13:52:14.096Z,102547.73
2019-01-06T13:54:59.755Z,102550.78
2019-01-06T14:00:32.706Z,102552.13
2019-01-06T14:06:05.709Z,102551.53
2019-01-06T14:08:51.391Z,102548.11
2019-01-06T14:14:15.566Z,102551.53
2019-01-06T14:17:01.228Z,102551.89
2019-01-06T14:19:46.885Z,102548.24
2019-01-06T14:25:19.870Z,102542.75
2019-01-06T14:28:05.525Z,102548.61
2019-01-06T14:30:51.195Z,102536.16
2019-01-06T14:33:36.860Z,102547.72
2019-01-06T14:36:22.513Z,102549.30
2019-01-06T14:39:10.850Z,102548.58
2019-01-06T14:41:55.757Z,102547.97
2019-01-06T14:44:41.402Z,102550.75
2019-01-06T14:50:01.026Z,102547.35
2019-01-06T14:55:20.493Z,102557.21
2019-01-06T14:58:06.301Z,102555.26
2019-01-06T15:00:51.943Z,102565.47
2019-01-06T15:03:37.621Z,102561.47
2019-01-06T15:06:23.296Z,102553.78
2019-01-06T15:11:56.277Z,102558.41
2019-01-06T15:14:41.946Z,102552.81
2019-01-06T15:17:27.639Z,102555.11
2019-01-06T15:20:13.280Z,102552.70
2019-01-06T15:22:58.942Z,102552.44
2019-01-06T15:25:44.600Z,102560.26
2019-01-06T15:28:30.419Z,102560.05
2019-01-06T15:31:16.062Z,102563.07
2019-01-06T15:34:01.747Z,102555.67
2019-01-06T15:36:47.418Z,102558.32
2019-01-06T15:39:33.088Z,102558.92
2019-01-06T15:45:06.056Z,102561.48
2019-01-06T15:50:29.907Z,102556.97
2019-01-06T15:53:15.588Z,102564.77
2019-01-06T15:56:01.234Z,102566.25
2019-01-06T16:01:25.149Z,102565.41
2019-01-06T16:09:18.290Z,102559.14
2019-01-06T16:12:03.931Z,102566.98
2019-01-06T16:17:23.206Z,102564.04
2019-01-06T16:20:08.890Z,102564.03
2019-01-06T16:25:41.857Z,102563.42
2019-01-06T16:28:27.498Z,102574.88
2019-01-06T16:36:20.658Z,102572.94
2019-01-06T16:41:53.620Z,102579.65
2019-01-06T16:44:39.290Z,102574.52
2019-01-06T16:47:24.920Z,102574.15
2019-01-06T16:50:10.575Z,102572.20
2019-01-06T16:55:43.562Z,102575.99
2019-01-06T16:58:29.209Z,102575.99
2019-01-06T17:01:14.876Z,102580.02
2019-01-06T17:04:00.724Z,102582.83
2019-01-06T17:09:46.403Z,102583.43
2019-01-06T17:12:32.059Z,102587.69
2019-01-06T17:15:17.730Z,102584.53
2019-01-06T17:18:03.370Z,102586.58
2019-01-06T17:20:49.020Z,102584.64
2019-01-06T17:23:34.690Z,102585.14
2019-01-06T17:34:01.685Z,102591.58
2019-01-06T17:36:47.349Z,102587.70
2019-01-06T17:39:32.990Z,102589.63
2019-01-06T17:42:18.664Z,102596.34
2019-01-06T17:45:04.334Z,102596.70
2019-01-06T17:47:50.016Z,102594.28
2019-01-06T17:50:35.663Z,102594.15
2019-01-06T17:53:21.332Z,102591.47
2019-01-06T17:56:06.980Z,102595.13
2019-01-06T17:58:52.639Z,102598.78
2019-01-06T18:01:38.300Z,102599.88
2019-01-06T18:04:23.943Z,102603.67
2019-01-06T18:07:09.641Z,102598.91
2019-01-06T18:09:55.281Z,102596.96
2019-01-06T18:12:40.938Z,102600.25
2019-01-06T18:15:48.387Z,102599.98
2019-01-06T18:18:34.065Z,102604.88
2019-01-06T18:21:19.734Z,102601.08
2019-01-06T18:29:17.084Z,102604.73
2019-01-06T18:32:02.725Z,102609.73
2019-01-06T18:37:22.191Z,102599.00
2019-01-06T18:40:07.841Z,102603.30
2019-01-06T18:42:53.483Z,102600.97
2019-01-06T18:45:39.143Z,102600.71
2019-01-06T18:48:24.870Z,102601.22
2019-01-06T18:59:10.065Z,102597.66
2019-01-06T19:01:59.305Z,102599.75
2019-01-06T19:04:43.300Z,102602.56
2019-01-06T19:10:16.282Z,102607.05
2019-01-06T19:16:05.222Z,102594.50
2019-01-06T19:21:38.339Z,102596.23
2019-01-06T19:24:24.000Z,102601.31
2019-01-06T19:29:48.177Z,102602.66
2019-01-06T19:32:33.838Z,102596.96
2019-01-06T19:35:19.598Z,102599.37
2019-01-06T19:38:05.255Z,102607.42
2019-01-06T19:40:50.911Z,102590.12
2019-01-06T19:43:36.578Z,102585.34
2019-01-06T19:46:22.219Z,102595.47
2019-01-06T19:49:07.864Z,102589.13
2019-01-06T19:51:53.516Z,102591.81
2019-01-06T19:57:26.481Z,102589.73
2019-01-06T20:00:12.131Z,102595.97
2019-01-06T20:06:11.645Z,102578.02
2019-01-06T20:08:57.333Z,102581.58
2019-01-06T20:11:42.974Z,102578.03
2019-01-06T20:17:02.695Z,102578.64
2019-01-06T20:22:22.119Z,102576.94
2019-01-06T20:25:07.778Z,102579.02
2019-01-06T20:27:53.473Z,102574.61
2019-01-06T20:30:39.118Z,102586.20
2019-01-06T20:33:24.909Z,102579.87
2019-01-06T20:36:10.574Z,102588.53
2019-01-06T20:41:30.035Z,102581.81
2019-01-06T20:44:15.693Z,102584.87
2019-01-06T20:47:01.358Z,102583.27
2019-01-06T20:49:47.265Z,102581.20
2019-01-06T20:52:33.040Z,102587.92
2019-01-06T20:55:18.703Z,102588.98
2019-01-06T20:58:04.388Z,102589.85
2019-01-06T21:03:28.263Z,102591.20
2019-01-06T21:06:13.917Z,102589.37
2019-01-06T21:08:59.587Z,102584.34
2019-01-06T21:11:45.301Z,102594.72
2019-01-06T21:14:30.999Z,102596.72
2019-01-06T21:17:16.657Z,102602.40
2019-01-06T21:20:02.317Z,102588.98
2019-01-06T21:22:47.981Z,102594.72
2019-01-06T21:25:33.665Z,102598.13
2019-01-06T21:28:19.315Z,102590.69
2019-01-06T21:36:12.987Z,102603.27
2019-01-06T21:38:58.637Z,102607.53
2019-01-06T21:41:44.358Z,102601.06
2019-01-06T21:44:30.369Z,102601.67
2019-01-06T21:47:16.076Z,102598.74
2019-01-06T21:55:28.650Z,102591.08
2019-01-06T22:00:48.414Z,102588.16
2019-01-06T22:06:08.307Z,102592.55
2019-01-06T22:08:53.957Z,102587.03
2019-01-06T22:11:39.601Z,102585.59
2019-01-06T22:14:25.288Z,102583.14
2019-01-06T22:17:10.961Z,102587.33
2019-01-06T22:19:56.608Z,102586.20
2019-01-06T22:22:42.279Z,102585.70
2019-01-06T22:25:49.741Z,102584.26
2019-01-06T22:28:44.084Z,102584.26
2019-01-06T22:34:17.101Z,102588.39
2019-01-06T22:37:02.863Z,102595.83
2019-01-06T22:39:48.813Z,102583.53
2019-01-06T22:42:34.492Z,102588.89
2019-01-06T22:45:20.273Z,102585.95
2019-01-06T22:48:05.959Z,102589.85
2019-01-06T22:50:51.609Z,102588.75
2019-01-06T22:53:37.278Z,102574.85
2019-01-06T22:56:22.919Z,102578.27
2019-01-06T22:59:08.581Z,102590.72
2019-01-06T23:01:54.232Z,102572.17
2019-01-06T23:04:39.896Z,102575.96
2019-01-06T23:07:25.569Z,102572.06
2019-01-06T23:10:11.245Z,102569.39
2019-01-06T23:15:44.241Z,102567.91
2019-01-06T23:18:29.913Z,102577.42
2019-01-06T23:21:15.573Z,102573.27
2019-01-06T23:24:01.224Z,102578.16
2019-01-06T23:26:46.906Z,102573.27
2019-01-06T23:29:32.582Z,102567.67
2019-01-06T23:35:05.546Z,102571.92
2019-01-06T23:37:51.187Z,102569.98
2019-01-06T23:43:10.333Z,102564.75
2019-01-06T23:48:34.145Z,102567.80
2019-01-06T23:53:58.130Z,102561.09
2019-01-06T23:56:43.793Z,102560.59
2019-01-06T23:59:29.447Z,102568.63
